Aviation Digital Data Service (ADDS)

Output produced by METARs form (1503 UTC 29 May 2017)
found at http://www.aviationweather.gov/adds/metars/
 
UTAA 291400Z 33014KT 9999 SCT100 31/10 Q1016 NOSIG
TAF UTAA 291030Z 2912/3012 34018KT 5000 SCT050CB 530009 
     TEMPO 2912/2917 30016G26KT 3000 BLDU 
     PROB30 
     TEMPO 2912/2917 VRB26KT -TSRA 
     TEMPO 2917/3002 27018KT 
     BECMG 3005/3007 04016KT
       
UTAK 291400Z 34014KT CAVOK 25/10 Q1020 NOSIG
TAF UTAK 291030Z 2912/3012 36016G26KT 9999 SCT020 530007 
     TEMPO 2912/2916 29016G26KT 
     BECMG 2918/2920 07012KT 5000 SCT008 
     TEMPO 2921/3003 2000 BR BKN005 
     BECMG 3003/3004 10016KT 9999 SCT023 
     TEMPO 3004/3012 17016KT
       
UTAM 291400Z 33010G20KT CAVOK 33/09 Q1012 NOSIG
TAF UTAM 291030Z 2912/3012 30014G24KT 5000 SCT050 SCT100 530009 
     TEMPO 2912/2918 33018G28KT 2000 BLDU 
     BECMG 2918/2920 34016KT
       
UTAT 291500Z 28016G26KT CAVOK 29/06 Q1013 NOSIG
TAF UTAT 291037Z 2911/3012 28016G26KT 6000 SCT050CB BKN100 530005 
     TEMPO 2912/2918 31020G30KT 2000 DRDU
       
UTAV 291400Z 33008KT CAVOK 32/10 Q1010 NOSIG
TAF UTAV 291030Z 2912/3012 02014G24KT 5000 SCT050CB 530009 
     TEMPO 2912/2920 30020G30KT 2000 DRDU 570005 
     PROB30 
     TEMPO 2912/2918 VRB30KT TSRA
       
UTDD 291430Z 27001MPS 9999 FEW066CB 29/09 Q1011 R09/D NOSIG RMK QFE690/0921
TAF UTDD 291200Z 2913/3001 VRB02MPS 6000 SCT060CB BKN100 
     TEMPO 2913/3001 VRB10G15MPS 2100 TS HZ
       
UTDK 291430Z 07004MPS 9999 NSC 31/09 Q1010 R01/09//70 RMK QFE700/0934
TAF UTDK 291200Z 2913/2922 03005MPS 6000 FEW066CB BKN100 
     TEMPO 2913/2922 VRB07G12MPS 2100 TS HZ
       
UTDL 291430Z 03002MPS 9999 FEW070CB SCT120 31/05 Q1009 88CLRD70 NOSIG RMK QFE719/0959
TAF UTDL 291200Z 2913/2922 23006MPS 9999 SCT060CB BKN100 
     TEMPO 2913/2918 VRB10MPS 5000 -TSRA BKN050CB
       
UTDT 291430Z 03003MPS 9999 SCT060 BKN160 33/07 Q1007 35CLRD70 RMK QFE716/0955
TAF UTDT 291200Z 2913/2922 20005MPS 4000 HZ SCT066CB BKN100 
     TEMPO 2913/2922 VRB09G14MPS 2000 TS HZ
       
UTFF 291300Z 31009KT 9999 NSC 32/10 Q1009 R18/CLRD70
TAF UTFF 290900Z 2910/2919 34010KT 9999 SCT050CB 
     TEMPO 2910/2919 VRB14G24KT 7000 -TSRA BKN050CB OVC100
       
UTFN 291430Z 23014G24KT 9999 BKN050CB 32/00 Q1010 R28/CLRD70 NOSIG
TAF UTFN 291100Z 2912/3012 34010KT 7000 FEW050CB 
     TEMPO 2912/2915 23015G30KT 3000 -TSRA -DS SCT050CB 
     TEMPO 2915/2924 VRB20G30KT -TSRA OVC050CB
       
UTNN 291430Z 30016KT CAVOK 28/06 Q1013 R33/CLRD60 NOSIG
TAF UTNN 291100Z 2912/3012 27016G26KT CAVOK 
     TEMPO 2918/3004 32010KT
       
UTNU 291430Z 28012KT 9000 NSC 29/07 Q1013 R31/CLRD70 NOSIG
TAF AMD UTNU 291240Z 2912/3012 28014G24KT 8000 NSC 
     TEMPO 2912/2918 26024G34KT 3000 BLDU BKN050CB BKN100
       
UTSA 291430Z 31012KT 9999 NSC 30/05 Q1012 R25/CLRD70 NOSIG
TAF UTSA 291101Z 2912/3012 VRB05KT 7000 FEW050CB BKN100 
     TEMPO 2912/2924 32016G26KT 4500 -DS FEW006 BKN030CB OVC100 
     PROB40 
     TEMPO 2912/2924 -TSRA OVC020CB
       
UTSB 291430Z 32010KT CAVOK 30/05 Q1012 R01/CLRD70 NOSIG
TAF UTSB 291100Z 2912/3012 30010KT 7000 FEW050CB BKN100 
     TEMPO 2912/2924 36016G26KT 4500 -DS FEW006 BKN030CB OVC100 
     PROB40 
     TEMPO 2912/2924 -TSRA OVC020CB
       
UTSK 291430Z 33010KT CAVOK 31/06 Q1012 R34/CLRD70
TAF UTSK 291150Z 2913/2922 32010G20KT CAVOK 
     TEMPO 2913/2918 VRB20G30KT 1500 TSRA DS BKN040CB
       
UTSS 291430Z 25006KT 220V290 9999 SCT069CB 26/05 Q1014 R09/70D NOSIG
TAF UTSS 291100Z 2912/3012 11010G20KT 9999 NSC 
     TEMPO 2912/2918 VRB20G30KT 1500 TSRA DS BKN040CB
       
UTST 291430Z 28006KT CAVOK 32/06 Q1006 R88/CLRD70 NOSIG
TAF UTST 291100Z 2912/3012 29010G20KT 5000 HZ NSC TX35/3011Z 
     TEMPO 2915/2921 26023G33KT 1000 DS SCT066CB SCT100 
     TEMPO 2921/3009 24033G43KT 0600 +DS VV003
       
UTTT 291430Z 27012KT 9999 SCT066CB 28/11 Q1010 R26R/CLRD70 NOSIG
TAF UTTT 291100Z 2912/3012 26010G20KT 7000 SCT060CB OVC100 
     TEMPO 2912/2924 VRB25G35KT 3000 -TSRA BKN050CB 
     TEMPO 3000/3006 2000 SHRA BR SCT015 BKN040CB
       
UTSB 291430Z 32010KT CAVOK 30/05 Q1012 R01/CLRD70 NOSIG
TAF UTSB 291100Z 2912/3012 30010KT 7000 FEW050CB BKN100 
     TEMPO 2912/2924 36016G26KT 4500 -DS FEW006 BKN030CB OVC100 
     PROB40 
     TEMPO 2912/2924 -TSRA OVC020CB
       
UTSK 291430Z 33010KT CAVOK 31/06 Q1012 R34/CLRD70
TAF UTSK 291150Z 2913/2922 32010G20KT CAVOK 
     TEMPO 2913/2918 VRB20G30KT 1500 TSRA DS BKN040CB
       
UTSS 291430Z 25006KT 220V290 9999 SCT069CB 26/05 Q1014 R09/70D NOSIG
TAF UTSS 291100Z 2912/3012 11010G20KT 9999 NSC 
     TEMPO 2912/2918 VRB20G30KT 1500 TSRA DS BKN040CB
       
UTST 291430Z 28006KT CAVOK 32/06 Q1006 R88/CLRD70 NOSIG
TAF UTST 291100Z 2912/3012 29010G20KT 5000 HZ NSC TX35/3011Z 
     TEMPO 2915/2921 26023G33KT 1000 DS SCT066CB SCT100 
     TEMPO 2921/3009 24033G43KT 0600 +DS VV003
       
UTNU 291430Z 28012KT 9000 NSC 29/07 Q1013 R31/CLRD70 NOSIG
TAF AMD UTNU 291240Z 2912/3012 28014G24KT 8000 NSC 
     TEMPO 2912/2918 26024G34KT 3000 BLDU BKN050CB BKN100
       
UTTT 291430Z 27012KT 9999 SCT066CB 28/11 Q1010 R26R/CLRD70 NOSIG
TAF UTTT 291100Z 2912/3012 26010G20KT 7000 SCT060CB OVC100 
     TEMPO 2912/2924 VRB25G35KT 3000 -TSRA BKN050CB 
     TEMPO 3000/3006 2000 SHRA BR SCT015 BKN040CB